Appleton City, Missouri
Current Conditions -  °F | °C
As of 12:35 PM on Thursday 30 Oct 2014 (Local Time) from KGLY Reporting Station
Few Clouds Few Clouds  
Wind Chill: 63°   Ceiling: Unl
Heat Index: 63°   Visibility: 10mi
Dew Point: 46°   Wind: 8mph
Humidity: 55%   Direction: 220°SW
Pressure: 30.02"   Gusts: NA
Location:  38.19°N, 94.03°W
Report Text: KGLY 301735Z AUTO 22007KT 10SM FEW110 17/08 A3002 RMK AO2
Loading
Personal Weather Stations






























Interactive Weather Map
Tropical Storm Tracking
New forecast layout! Learn more

10-Day Weather Forecast

Advertisements
Track Severe Weather on mobile